Time;durP1;ratioP1;P1;durP2;ratioP2;P2;SDS_P1;SDS_P2;PMS_P1;PMS_P2;Temp;Humidity;BMP_temperature;BMP_pressure;BME280_temperature;BME280_humidity;BME280_pressure;Samples;Min_cycle;Max_cycle;Signal;HPM_P1;HPM_P2
2023/03/01 00:01:37;;;;;;;67.93;35.75;;;;;;;17.33;75.02;99558.22;5033531;28;20420;-59
2023/03/01 00:04:12;;;;;;;58.63;31.50;;;;;;;17.34;74.83;99561.72;5036931;28;20067;-61
2023/03/01 00:07:07;;;;;;;49.67;28.50;;;;;;;17.29;74.67;99565.03;5037036;28;20052;-60
2023/03/01 00:09:43;;;;;;;49.40;27.23;;;;;;;17.12;74.43;99561.22;5033220;28;20045;-62
2023/03/01 00:12:32;;;;;;;38.53;23.90;;;;;;;16.97;74.29;99553.47;5036352;28;20065;-60
2023/03/01 00:15:15;;;;;;;34.53;20.35;;;;;;;17.06;74.35;99546.84;5028942;28;20052;-59
2023/03/01 00:18:03;;;;;;;27.90;17.25;;;;;;;17.14;73.83;99547.59;5038655;28;20524;-59
2023/03/01 00:21:01;;;;;;;31.40;15.68;;;;;;;17.08;73.61;99560.00;5035435;28;20045;-60
2023/03/01 00:23:43;;;;;;;25.10;15.40;;;;;;;17.12;72.70;99549.69;5038897;28;20045;-59
2023/03/01 00:26:33;;;;;;;20.33;12.65;;;;;;;17.17;72.39;99547.19;5038334;28;20069;-60
2023/03/01 00:29:14;;;;;;;25.60;12.60;;;;;;;17.13;72.40;99551.34;5030458;28;20060;-60
2023/03/01 00:32:04;;;;;;;19.95;11.85;;;;;;;17.08;72.59;99565.38;5041092;28;20117;-58
2023/03/01 00:34:53;;;;;;;17.52;10.73;;;;;;;17.03;72.20;99559.81;5023230;28;20168;-59
2023/03/01 00:37:43;;;;;;;13.40;9.13;;;;;;;17.15;71.70;99554.59;5027777;28;20480;-60
2023/03/01 00:40:26;;;;;;;12.63;8.60;;;;;;;17.16;71.92;99553.59;5027903;28;20061;-58
2023/03/01 00:43:15;;;;;;;13.13;8.65;;;;;;;17.00;71.41;99552.19;5029535;28;20477;-59
2023/03/01 00:46:01;;;;;;;11.57;7.55;;;;;;;16.97;70.75;99553.47;5014969;28;20052;-59
2023/03/01 00:48:51;;;;;;;15.80;8.70;;;;;;;17.11;71.28;99558.75;5047876;28;20041;-59
2023/03/01 00:51:34;;;;;;;12.45;8.60;;;;;;;17.14;70.89;99553.78;5047595;28;20060;-59
2023/03/01 00:54:23;;;;;;;12.80;8.35;;;;;;;17.07;70.98;99563.72;5030086;28;20763;-61
2023/03/01 00:57:04;;;;;;;10.32;6.80;;;;;;;17.01;71.02;99569.91;5010509;28;20072;-60
2023/03/01 00:59:54;;;;;;;11.15;7.10;;;;;;;17.05;71.07;99571.13;5027224;28;20115;-60
2023/03/01 01:02:37;;;;;;;11.87;7.67;;;;;;;16.96;70.84;99567.03;5027379;28;20053;-60
2023/03/01 01:05:25;;;;;;;10.77;6.78;;;;;;;17.07;71.31;99574.41;5026517;28;20049;-60
2023/03/01 01:08:07;;;;;;;10.50;7.32;;;;;;;17.03;70.95;99574.03;4990029;28;20050;-61
2023/03/01 01:10:57;;;;;;;12.35;7.00;;;;;;;17.00;70.57;99577.13;5007343;28;20042;-60
2023/03/01 01:13:39;;;;;;;9.40;6.63;;;;;;;16.90;71.15;99583.97;5016467;28;20045;-61
2023/03/01 01:16:31;;;;;;;10.10;6.72;;;;;;;16.85;70.92;99581.09;5022852;28;20050;-60
2023/03/01 01:19:27;;;;;;;10.82;7.32;;;;;;;16.75;71.16;99589.56;5026687;28;20812;-59
2023/03/01 01:22:03;;;;;;;10.13;6.75;;;;;;;16.77;70.72;99581.34;5008161;28;20140;-61
2023/03/01 01:24:58;;;;;;;16.03;8.63;;;;;;;16.72;71.42;99584.63;5027279;28;20095;-62
2023/03/01 01:27:34;;;;;;;14.45;7.80;;;;;;;16.65;71.50;99591.84;5026242;28;20132;-61
2023/03/01 01:30:29;;;;;;;11.30;7.77;;;;;;;16.75;71.52;99597.59;5008406;28;20062;-60
2023/03/01 01:33:04;;;;;;;12.77;7.85;;;;;;;16.80;71.96;99595.09;5024073;28;20788;-60
2023/03/01 01:36:00;;;;;;;15.63;8.00;;;;;;;16.77;72.17;99579.50;5023901;28;20045;-61
2023/03/01 01:38:37;;;;;;;15.90;8.25;;;;;;;16.76;72.06;99585.88;5041727;28;20057;-60
2023/03/01 01:41:34;;;;;;;11.80;7.63;;;;;;;16.82;71.72;99598.38;5044261;28;20110;-61
2023/03/01 01:44:26;;;;;;;12.18;8.40;;;;;;;16.81;71.86;99602.09;5023392;28;20041;-61
2023/03/01 01:47:22;;;;;;;13.75;8.02;;;;;;;16.87;71.41;99595.91;5037032;28;20049;-60
2023/03/01 01:50:03;;;;;;;12.57;7.88;;;;;;;16.90;71.59;99594.66;5043116;28;20057;-60
2023/03/01 01:53:09;;;;;;;15.60;8.73;;;;;;;16.72;71.52;99606.03;5040693;28;20056;-60
2023/03/01 01:56:07;;;;;;;14.30;8.70;;;;;;;16.67;72.59;99621.06;5047817;28;20069;-60
2023/03/01 01:58:57;;;;;;;14.98;8.80;;;;;;;16.82;73.45;99627.81;5029015;28;20095;-62
2023/03/01 02:01:39;;;;;;;16.38;9.73;;;;;;;16.89;72.27;99639.34;5039825;28;20049;-61
2023/03/01 02:04:31;;;;;;;15.98;10.45;;;;;;;16.93;71.66;99645.06;5046406;28;20080;-60
2023/03/01 02:07:28;;;;;;;15.80;10.18;;;;;;;17.06;72.59;99648.53;5016364;28;20061;-60
2023/03/01 02:10:23;;;;;;;17.73;10.75;;;;;;;16.93;72.24;99645.91;4997986;28;20042;-60
2023/03/01 02:13:01;;;;;;;16.88;10.85;;;;;;;17.15;71.52;99659.00;5027503;28;20048;-60
2023/03/01 02:15:56;;;;;;;19.40;11.10;;;;;;;17.10;71.69;99654.28;5025352;28;20053;-61
2023/03/01 02:18:33;;;;;;;20.90;11.00;;;;;;;17.34;71.27;99645.56;5026582;28;20727;-61
2023/03/01 02:21:37;;;;;;;18.17;11.27;;;;;;;17.35;70.37;99646.34;5017595;28;20037;-60
2023/03/01 02:24:29;;;;;;;19.33;11.73;;;;;;;17.37;70.10;99660.38;5013437;28;20656;-60
2023/03/01 02:27:28;;;;;;;20.58;11.20;;;;;;;17.40;69.36;99659.94;5036107;28;20084;-61
2023/03/01 02:30:06;;;;;;;19.73;11.45;;;;;;;17.43;70.22;99665.72;5045940;28;20052;-60
2023/03/01 02:33:03;;;;;;;18.73;11.43;;;;;;;17.55;69.58;99673.88;5030393;28;20041;-60
2023/03/01 02:35:40;;;;;;;23.23;12.02;;;;;;;17.77;68.83;99675.25;5041792;28;20045;-61
2023/03/01 02:38:36;;;;;;;17.02;12.05;;;;;;;18.41;66.27;99666.94;5045289;28;20057;-60
2023/03/01 02:41:16;;;;;;;22.33;11.90;;;;;;;18.68;65.84;99675.59;5035552;28;20458;-60
2023/03/01 02:44:13;;;;;;;19.15;12.13;;;;;;;19.26;63.37;99677.88;5008029;28;20609;-60
2023/03/01 02:46:54;;;;;;;18.13;11.57;;;;;;;19.40;62.68;99686.59;5004467;28;20046;-60
2023/03/01 02:49:48;;;;;;;16.33;11.45;;;;;;;19.68;61.84;99670.75;5005867;28;20053;-59
2023/03/01 02:52:42;;;;;;;15.55;11.25;;;;;;;19.89;61.29;99680.19;5012766;28;20073;-61
2023/03/01 02:55:36;;;;;;;18.05;11.52;;;;;;;19.91;60.89;99688.84;5048988;28;20552;-61
2023/03/01 02:58:25;;;;;;;17.10;11.27;;;;;;;20.53;60.00;99693.69;5045223;28;20044;-61
2023/03/01 03:01:15;;;;;;;18.77;12.05;;;;;;;20.55;58.06;99699.66;5039608;28;20049;-58
2023/03/01 03:04:00;;;;;;;18.27;11.95;;;;;;;20.79;58.87;99705.06;5023433;28;20049;-59
2023/03/01 03:06:53;;;;;;;17.03;11.77;;;;;;;20.96;58.81;99706.00;5036222;28;20069;-60
2023/03/01 03:09:34;;;;;;;;;;;;;;;20.62;58.06;99707.66;5045375;28;20746;-60
2023/03/01 03:12:22;;;;;;;19.98;12.80;;;;;;;20.80;58.31;99714.78;5046720;28;19932;-61
2023/03/01 03:15:08;;;;;;;21.30;14.00;;;;;;;20.79;57.68;99719.34;5034537;28;20049;-59
2023/03/01 03:17:59;;;;;;;19.48;13.32;;;;;;;20.96;57.35;99727.53;5064446;28;20392;-60
2023/03/01 03:20:43;;;;;;;20.08;12.57;;;;;;;21.04;57.54;99738.78;5057865;28;20045;-61
2023/03/01 03:23:32;;;;;;;15.25;11.23;;;;;;;21.56;56.69;99730.75;5035033;28;20098;-61
2023/03/01 03:26:14;;;;;;;23.27;11.40;;;;;;;21.88;54.20;99736.53;5022433;28;20044;-61
2023/03/01 03:29:04;;;;;;;17.17;10.90;;;;;;;21.79;54.22;99737.97;5024737;28;20041;-60
2023/03/01 03:31:45;;;;;;;18.55;10.15;;;;;;;21.88;54.07;99748.13;5023561;28;20044;-61
2023/03/01 03:34:34;;;;;;;16.63;9.27;;;;;;;22.00;52.29;99747.28;5045010;28;20045;-60
2023/03/01 03:40:23;;;;;;;17.73;10.77;;;;;;;22.97;51.52;99762.22;5033314;28;20044;-61
2023/03/01 03:43:08;;;;;;;16.58;11.77;;;;;;;23.42;51.76;99764.78;5042462;28;20041;-61
2023/03/01 03:45:58;;;;;;;18.40;9.80;;;;;;;23.05;51.13;99758.31;5055525;28;20058;-60
2023/03/01 03:48:44;;;;;;;16.63;10.63;;;;;;;22.98;50.92;99769.28;5028420;28;20111;-60
2023/03/01 03:51:33;;;;;;;12.10;8.13;;;;;;;22.79;51.33;99771.41;5047460;28;20049;-61
2023/03/01 03:54:16;;;;;;;14.32;8.88;;;;;;;23.37;50.12;99790.94;5039478;28;20049;-61
2023/03/01 03:57:11;;;;;;;21.38;9.57;;;;;;;23.15;49.97;99785.47;5035658;28;20045;-61
2023/03/01 04:00:00;;;;;;;17.70;9.75;;;;;;;23.52;50.80;99794.69;5048179;28;20041;-60
2023/03/01 04:02:49;;;;;;;19.05;10.80;;;;;;;23.03;50.40;99793.69;5035817;28;20049;-61
2023/03/01 04:05:31;;;;;;;13.45;9.30;;;;;;;24.01;48.57;99795.59;5063945;28;20059;-62
2023/03/01 04:08:21;;;;;;;15.93;9.57;;;;;;;24.13;47.37;99798.16;5038278;28;20051;-61
2023/03/01 04:11:25;;;;;;;18.27;9.82;;;;;;;24.79;45.72;99798.81;5038566;28;20122;-60
2023/03/01 04:14:12;;;;;;;20.95;9.63;;;;;;;24.65;46.81;99808.47;5057745;28;20122;-60
2023/03/01 04:16:54;;;;;;;18.20;9.65;;;;;;;23.84;46.81;99805.66;5055919;28;20548;-61
2023/03/01 04:19:43;;;;;;;13.43;8.48;;;;;;;24.73;47.53;99810.72;5050610;28;20113;-60
2023/03/01 04:22:29;;;;;;;18.25;9.40;;;;;;;24.86;45.05;99813.84;5052376;28;20060;-60
2023/03/01 04:25:17;;;;;;;18.83;10.77;;;;;;;24.95;46.75;99808.75;5023716;28;20046;-60
2023/03/01 04:27:59;;;;;;;12.60;9.13;;;;;;;25.31;45.22;99816.06;5046407;28;20540;-61
2023/03/01 04:30:49;;;;;;;18.58;8.85;;;;;;;23.71;46.85;99806.88;5062030;28;20048;-60
2023/03/01 04:33:30;;;;;;;15.75;9.85;;;;;;;24.40;46.78;99807.13;5056283;28;20102;-60
2023/03/01 04:36:22;;;;;;;16.38;8.77;;;;;;;24.68;45.74;99813.38;5027104;28;20103;-61
2023/03/01 04:39:11;;;;;;;13.18;7.60;;;;;;;24.67;44.70;99815.25;5048855;28;20475;-61
2023/03/01 04:42:01;;;;;;;17.83;8.60;;;;;;;24.98;45.91;99809.06;5043444;28;20410;-61
2023/03/01 04:44:43;;;;;;;11.57;7.10;;;;;;;25.20;42.99;99803.50;5059170;28;20094;-60
2023/03/01 04:47:32;;;;;;;14.73;7.57;;;;;;;25.29;45.71;99799.22;5040195;28;20391;-60
2023/03/01 04:50:20;;;;;;;13.13;8.35;;;;;;;24.98;44.40;99806.34;5050384;28;20049;-62
2023/03/01 04:53:08;;;;;;;;;;;;;;;26.10;43.20;99812.41;5043870;28;20048;-60
2023/03/01 04:55:51;;;;;;;11.93;8.02;;;;;;;25.82;42.51;99819.09;5055130;28;19978;-60
2023/03/01 04:58:39;;;;;;;14.40;7.05;;;;;;;25.20;42.49;99813.53;5033349;28;20044;-61
2023/03/01 05:01:22;;;;;;;8.15;6.22;;;;;;;25.30;42.86;99819.03;5042007;28;20049;-60
2023/03/01 05:04:13;;;;;;;9.95;6.75;;;;;;;25.32;43.75;99817.69;5048409;28;20056;-63
2023/03/01 05:06:55;;;;;;;11.45;7.47;;;;;;;25.27;42.39;99814.16;5033516;28;20045;-63
2023/03/01 05:09:45;;;;;;;11.55;5.70;;;;;;;25.87;42.89;99809.06;5030549;28;20045;-62
2023/03/01 05:12:27;;;;;;;16.30;6.38;;;;;;;24.80;42.09;99809.41;5050491;28;20056;-62
2023/03/01 05:15:17;;;;;;;11.85;5.40;;;;;;;25.09;43.57;99799.09;5055816;28;20065;-62
2023/03/01 05:18:00;;;;;;;8.93;5.55;;;;;;;24.83;43.83;99814.31;5065795;28;20141;-61
2023/03/01 05:20:48;;;;;;;9.43;4.88;;;;;;;25.57;42.40;99802.69;5049705;28;20037;-62
2023/03/01 05:23:32;;;;;;;10.73;5.97;;;;;;;25.14;40.66;99814.59;5040393;28;20059;-64
2023/03/01 05:26:28;;;;;;;11.90;5.30;;;;;;;25.20;41.25;99810.81;5040442;28;20484;-66
2023/03/01 05:29:10;;;;;;;11.02;6.18;;;;;;;24.69;41.91;99815.81;5037924;28;20666;-64
2023/03/01 05:32:01;;;;;;;11.35;6.97;;;;;;;24.61;42.46;99808.97;5044116;28;20049;-64
2023/03/01 05:34:43;;;;;;;8.90;6.30;;;;;;;25.32;43.04;99804.13;5037100;28;20056;-63
2023/03/01 05:37:32;;;;;;;18.92;7.70;;;;;;;25.76;43.61;99814.69;5043236;28;20065;-63
2023/03/01 05:40:20;;;;;;;13.40;6.20;;;;;;;25.90;40.61;99807.72;5043908;28;20044;-64
2023/03/01 05:43:08;;;;;;;18.73;6.40;;;;;;;25.96;42.91;99817.53;5040878;28;20382;-63
2023/03/01 05:45:51;;;;;;;29.05;7.03;;;;;;;25.95;41.96;99810.44;5054088;28;20048;-64
2023/03/01 05:48:40;;;;;;;11.35;4.80;;;;;;;25.70;41.18;99815.78;5027737;28;20076;-62
2023/03/01 05:51:22;;;;;;;13.45;5.18;;;;;;;25.75;39.40;99811.19;5051508;28;20595;-64
2023/03/01 05:54:10;;;;;;;7.68;5.35;;;;;;;25.45;40.33;99802.84;5066038;28;20044;-65
2023/03/01 05:56:53;;;;;;;10.07;6.05;;;;;;;25.36;40.92;99804.41;5049332;28;20040;-67
2023/03/01 05:59:42;;;;;;;15.52;5.10;;;;;;;26.32;41.10;99800.28;5046807;28;20052;-68
2023/03/01 06:02:38;;;;;;;17.15;5.03;;;;;;;26.65;41.06;99800.84;5057897;28;20134;-60
2023/03/01 06:05:15;;;;;;;13.80;5.82;;;;;;;26.61;40.42;99797.88;5049906;28;20040;-62
2023/03/01 06:08:04;;;;;;;35.60;8.73;;;;;;;26.93;40.82;99796.81;5034394;28;20500;-63
2023/03/01 06:10:47;;;;;;;18.13;5.60;;;;;;;27.13;40.07;99788.66;5048228;28;20037;-65
2023/03/01 06:13:43;;;;;;;17.65;5.72;;;;;;;27.35;40.04;99788.34;5051973;28;20901;-65
2023/03/01 06:16:18;;;;;;;19.02;6.35;;;;;;;27.08;37.97;99786.75;5053668;28;20056;-65
2023/03/01 06:19:13;;;;;;;18.52;6.20;;;;;;;26.98;38.93;99791.38;5047898;28;20041;-66
2023/03/01 06:21:49;;;;;;;15.68;8.30;;;;;;;26.75;38.15;99798.97;5054637;28;20045;-66
2023/03/01 06:24:37;;;;;;;17.13;7.95;;;;;;;26.36;37.65;99782.34;5030745;28;20396;-65
2023/03/01 06:27:20;;;;;;;20.85;8.30;;;;;;;27.00;38.08;99790.00;5063037;28;20137;-62
2023/03/01 06:30:21;;;;;;;17.88;9.40;;;;;;;26.92;38.15;99795.19;5065616;28;20045;-65
2023/03/01 06:33:00;;;;;;;24.67;13.80;;;;;;;27.45;38.02;99783.69;5058404;28;20461;-66
2023/03/01 06:35:55;;;;;;;25.90;14.23;;;;;;;27.67;37.34;99791.53;5046334;28;20625;-65
2023/03/01 06:38:31;;;;;;;29.45;16.77;;;;;;;27.80;36.46;99779.22;5026450;28;20041;-64
2023/03/01 06:41:20;;;;;;;42.50;22.88;;;;;;;27.49;38.89;99781.25;5044778;28;20083;-64
2023/03/01 06:44:08;;;;;;;33.20;17.88;;;;;;;27.42;39.81;99777.97;5052634;28;20076;-64
2023/03/01 06:46:50;;;;;;;35.80;16.95;;;;;;;27.62;39.98;99781.47;5035213;28;20061;-61
2023/03/01 06:49:40;;;;;;;30.17;16.75;;;;;;;27.40;40.28;99775.53;5035866;28;20607;-59
2023/03/01 06:52:22;;;;;;;36.97;21.75;;;;;;;26.99;40.61;99774.81;5041524;28;20053;-60
2023/03/01 06:55:12;;;;;;;39.53;19.75;;;;;;;27.35;40.92;99777.47;5061244;28;20048;-62
2023/03/01 06:58:09;;;;;;;40.78;23.00;;;;;;;27.09;39.50;99776.66;5033785;28;20132;-62
2023/03/01 07:00:44;;;;;;;41.75;21.98;;;;;;;27.12;39.82;99776.16;5036830;28;20044;-64
2023/03/01 07:03:32;;;;;;;35.30;21.40;;;;;;;27.37;40.65;99770.66;5036032;28;20528;-65
2023/03/01 07:06:15;;;;;;;36.08;19.60;;;;;;;27.20;40.39;99772.88;5022351;28;20164;-60
2023/03/01 07:09:03;;;;;;;40.13;20.98;;;;;;;27.36;40.74;99773.63;5048877;28;20800;-63
2023/03/01 07:11:53;;;;;;;33.97;20.83;;;;;;;26.89;40.02;99765.84;5037665;28;20057;-67
2023/03/01 07:14:34;;;;;;;33.83;20.45;;;;;;;27.40;40.96;99766.53;5040212;28;20473;-66
2023/03/01 07:17:23;;;;;;;31.65;20.17;;;;;;;27.53;40.71;99755.91;5039881;28;20460;-65
2023/03/01 07:20:06;;;;;;;33.75;19.48;;;;;;;27.50;40.65;99748.31;5044458;28;20075;-62
2023/03/01 07:22:55;;;;;;;36.28;20.55;;;;;;;27.38;40.90;99730.66;5037204;28;20547;-62
2023/03/01 07:25:36;;;;;;;32.10;18.42;;;;;;;27.38;39.79;99720.59;5027381;28;20076;-67
2023/03/01 07:28:26;;;;;;;31.75;16.38;;;;;;;27.35;40.74;99718.38;5034857;28;20147;-63
2023/03/01 07:31:07;;;;;;;25.52;15.80;;;;;;;26.86;40.33;99722.88;5037695;28;20051;-64
2023/03/01 07:33:57;;;;;;;21.42;13.25;;;;;;;26.33;40.59;99723.13;5035573;28;20567;-60
2023/03/01 07:36:39;;;;;;;26.98;15.50;;;;;;;26.92;42.89;99710.91;5032719;28;20110;-62
2023/03/01 07:39:27;;;;;;;23.90;13.27;;;;;;;26.75;41.07;99708.44;5035658;28;20048;-63
2023/03/01 07:42:09;;;;;;;20.65;13.35;;;;;;;26.82;42.69;99690.75;5036298;28;20045;-62
2023/03/01 07:44:59;;;;;;;26.70;14.20;;;;;;;26.76;42.64;99697.31;5034066;28;20055;-62
2023/03/01 07:47:40;;;;;;;24.30;13.45;;;;;;;26.77;43.55;99682.63;5038756;28;20735;-64
2023/03/01 07:50:29;;;;;;;27.85;12.35;;;;;;;26.53;43.58;99687.00;5038559;28;20550;-65
2023/03/01 07:53:12;;;;;;;22.52;13.13;;;;;;;26.61;41.75;99678.28;5033934;28;20056;-62
2023/03/01 07:56:08;;;;;;;18.65;12.27;;;;;;;26.68;44.36;99672.59;5039437;28;20077;-62
2023/03/01 07:58:45;;;;;;;18.90;11.10;;;;;;;26.36;42.95;99667.44;5035128;28;20044;-62
2023/03/01 08:01:33;;;;;;;17.17;10.98;;;;;;;26.67;43.62;99671.78;5041825;28;20061;-63
2023/03/01 08:04:24;;;;;;;19.10;11.07;;;;;;;26.28;44.33;99665.28;5036678;28;20525;-66
2023/03/01 08:07:06;;;;;;;21.73;11.00;;;;;;;26.23;43.21;99665.28;5045040;28;20036;-65
2023/03/01 08:09:56;;;;;;;19.52;10.65;;;;;;;26.41;44.03;99662.00;5045940;28;20064;-62
2023/03/01 08:12:37;;;;;;;22.40;11.60;;;;;;;26.32;44.21;99663.66;5026522;28;20049;-61
2023/03/01 08:15:27;;;;;;;18.90;11.52;;;;;;;26.40;45.09;99660.38;5035740;28;20130;-62
2023/03/01 08:18:09;;;;;;;17.90;10.52;;;;;;;26.42;44.58;99646.53;5026252;28;20057;-61
2023/03/01 08:20:57;;;;;;;21.52;10.80;;;;;;;26.35;43.86;99649.50;5038000;28;20053;-61
2023/03/01 08:23:40;;;;;;;19.38;10.88;;;;;;;26.24;45.03;99634.31;5033556;28;20056;-61
2023/03/01 08:26:29;;;;;;;20.13;10.23;;;;;;;26.00;45.02;99633.19;5024267;28;20497;-62
2023/03/01 08:29:12;;;;;;;21.02;10.82;;;;;;;26.23;46.14;99635.41;5041923;28;20045;-65
2023/03/01 08:32:01;;;;;;;15.82;10.52;;;;;;;26.19;45.24;99637.00;5037242;28;20625;-63
2023/03/01 08:34:47;;;;;;;17.48;10.90;;;;;;;26.30;46.12;99630.50;5043923;28;20786;-65
2023/03/01 08:37:35;;;;;;;20.13;10.40;;;;;;;26.41;45.58;99621.25;5007498;28;20436;-63
2023/03/01 08:40:18;;;;;;;22.40;11.60;;;;;;;26.26;46.81;99621.25;5037059;28;20049;-62
2023/03/01 08:43:07;;;;;;;17.45;11.45;;;;;;;26.34;46.61;99623.41;5045060;28;20044;-61
2023/03/01 08:45:56;;;;;;;15.85;10.38;;;;;;;25.41;46.83;99614.56;5048162;28;20045;-66
2023/03/01 08:48:38;;;;;;;17.65;10.68;;;;;;;25.73;47.42;99612.53;5042689;28;20064;-62
2023/03/01 08:51:36;;;;;;;25.50;10.38;;;;;;;25.69;47.42;99606.00;5041017;28;20438;-63
2023/03/01 08:54:15;;;;;;;19.20;10.82;;;;;;;25.77;48.10;99610.88;5027386;28;20052;-67
2023/03/01 08:57:10;;;;;;;19.58;11.80;;;;;;;25.75;47.64;99593.25;5037223;28;20136;-66
2023/03/01 08:59:45;;;;;;;18.02;10.73;;;;;;;25.65;47.86;99594.06;5045060;28;20052;-66
2023/03/01 09:02:42;;;;;;;17.00;10.63;;;;;;;25.60;47.75;99582.38;5044982;28;20084;-67
2023/03/01 09:05:17;;;;;;;16.70;9.27;;;;;;;25.81;47.50;99584.03;5045324;28;20056;-65
2023/03/01 09:08:12;;;;;;;17.30;9.55;;;;;;;25.74;46.60;99578.88;5046211;28;20432;-65
2023/03/01 09:10:48;;;;;;;15.32;9.60;;;;;;;25.71;47.93;99579.38;5029201;28;20132;-64
2023/03/01 09:13:44;;;;;;;17.77;10.00;;;;;;;25.49;46.52;99573.38;5034473;28;20194;-64
2023/03/01 09:16:21;;;;;;;15.73;9.13;;;;;;;25.59;47.43;99564.47;5038918;28;20044;-65
2023/03/01 09:19:18;;;;;;;11.43;8.88;;;;;;;25.59;47.44;99569.88;5058613;28;20832;-62
2023/03/01 09:21:53;;;;;;;17.13;9.43;;;;;;;25.49;47.82;99571.47;5047473;28;20128;-65
2023/03/01 09:24:47;;;;;;;20.75;9.07;;;;;;;25.53;48.09;99563.63;5042334;28;20052;-64
2023/03/01 09:27:24;;;;;;;18.83;9.85;;;;;;;25.28;48.31;99560.84;5046653;28;20642;-64
2023/03/01 09:30:14;;;;;;;15.30;9.52;;;;;;;25.01;48.21;99561.03;5046017;28;20152;-64
2023/03/01 09:32:56;;;;;;;13.65;9.00;;;;;;;25.15;48.42;99555.91;5051203;28;20076;-64
2023/03/01 09:35:51;;;;;;;15.45;9.68;;;;;;;24.95;48.27;99557.50;5063516;28;20040;-66
2023/03/01 09:38:27;;;;;;;17.15;9.25;;;;;;;24.80;47.80;99559.28;5063042;28;20080;-67
2023/03/01 09:41:32;;;;;;;23.48;10.45;;;;;;;24.88;47.41;99562.31;5044994;28;20084;-66
2023/03/01 09:44:44;;;;;;;18.92;8.43;;;;;;;24.89;46.21;99563.16;5043171;28;20132;-65
2023/03/01 09:47:36;;;;;;;17.40;8.77;;;;;;;24.84;45.80;99560.38;5041209;28;20071;-66
2023/03/01 09:50:24;;;;;;;13.65;8.75;;;;;;;24.77;45.75;99555.22;5045865;28;20049;-64
2023/03/01 09:53:26;;;;;;;11.75;8.05;;;;;;;24.97;45.33;99557.22;5042397;28;20147;-65
2023/03/01 09:56:24;;;;;;;15.98;7.40;;;;;;;24.92;45.04;99558.00;5039005;28;20483;-68
2023/03/01 09:59:27;;;;;;;17.02;8.02;;;;;;;24.84;44.34;99560.38;5057055;28;20043;-67
2023/03/01 10:02:15;;;;;;;17.67;7.68;;;;;;;25.01;44.49;99567.25;5040371;28;20346;-68
2023/03/01 10:05:35;;;;;;;14.65;7.60;;;;;;;25.02;42.88;99565.38;5044819;28;20052;-66
2023/03/01 10:08:27;;;;;;;17.17;8.00;;;;;;;25.10;44.21;99564.84;5041581;28;20040;-66
2023/03/01 10:11:26;;;;;;;14.15;7.32;;;;;;;24.85;43.33;99568.25;5039330;28;20045;-66
2023/03/01 10:14:32;;;;;;;10.85;6.63;;;;;;;24.80;43.25;99562.81;5044653;28;20524;-65
2023/03/01 10:17:39;;;;;;;13.50;6.20;;;;;;;24.74;43.51;99566.56;5037840;28;20522;-64
2023/03/01 10:20:23;;;;;;;12.93;6.93;;;;;;;24.99;43.19;99561.31;5033830;28;20050;-63
2023/03/01 10:23:20;;;;;;;10.88;6.35;;;;;;;24.78;43.93;99543.31;5046674;28;20044;-64
2023/03/01 10:26:09;;;;;;;12.75;7.00;;;;;;;24.96;43.56;99545.56;5041094;28;20048;-69
2023/03/01 10:29:10;;;;;;;12.68;7.03;;;;;;;24.94;42.76;99561.28;5034047;28;20130;-68
2023/03/01 10:31:51;;;;;;;15.60;7.47;;;;;;;24.89;43.53;99560.44;5038080;28;20052;-68
2023/03/01 10:34:45;;;;;;;13.77;7.50;;;;;;;24.85;45.15;99556.59;5034647;28;20598;-68
2023/03/01 10:37:24;;;;;;;13.60;6.95;;;;;;;24.91;45.59;99542.03;5042732;28;20106;-69
2023/03/01 10:40:18;;;;;;;13.02;7.32;;;;;;;24.74;44.94;99553.00;5038031;28;20738;-70
2023/03/01 10:42:59;;;;;;;17.35;7.65;;;;;;;24.81;45.96;99559.03;5050230;28;20044;-69
2023/03/01 10:45:56;;;;;;;14.68;7.32;;;;;;;24.68;45.60;99551.38;5043047;28;20049;-67
2023/03/01 10:48:31;;;;;;;16.10;8.07;;;;;;;24.67;46.19;99544.31;5035585;28;20044;-66
2023/03/01 10:51:25;;;;;;;18.52;8.23;;;;;;;24.55;45.51;99541.84;5021877;28;20095;-65
2023/03/01 10:54:03;;;;;;;14.02;7.90;;;;;;;24.67;46.32;99543.50;5040600;28;20045;-69
2023/03/01 10:57:03;;;;;;;11.93;7.55;;;;;;;24.69;46.91;99535.94;5035231;28;20045;-68
2023/03/01 11:00:16;;;;;;;17.85;7.43;;;;;;;24.39;45.28;99528.44;5030595;28;20045;-67
2023/03/01 11:03:05;;;;;;;14.30;6.85;;;;;;;24.36;46.33;99526.28;5035596;28;20053;-68
2023/03/01 11:06:01;;;;;;;14.50;8.40;;;;;;;24.17;45.06;99505.03;5039961;28;20053;-69
2023/03/01 11:08:53;;;;;;;12.20;6.70;;;;;;;24.26;46.34;99502.66;5039583;28;20055;-68
2023/03/01 11:11:36;;;;;;;15.55;6.88;;;;;;;24.11;46.16;99518.78;5041503;28;20052;-67
2023/03/01 11:14:30;;;;;;;16.25;7.32;;;;;;;23.97;45.65;99513.00;5019374;28;20121;-68
2023/03/01 11:17:32;;;;;;;11.02;6.97;;;;;;;24.00;46.05;99511.66;5022602;28;20126;-70
2023/03/01 11:20:44;;;;;;;14.45;7.45;;;;;;;23.96;46.83;99511.38;5012512;28;20460;-71
2023/03/01 11:23:27;;;;;;;16.90;6.90;;;;;;;23.95;47.05;99514.31;5019371;28;20636;-70
2023/03/01 11:26:20;;;;;;;11.70;6.63;;;;;;;23.94;47.38;99499.97;5038326;28;20377;-70
2023/03/01 11:29:13;;;;;;;15.32;8.00;;;;;;;23.91;47.56;99502.38;5040563;28;20146;-71
2023/03/01 11:32:08;;;;;;;15.18;8.20;;;;;;;23.77;48.16;99499.31;5042892;28;20055;-69
2023/03/01 11:35:06;;;;;;;18.70;7.70;;;;;;;23.85;48.02;99492.63;5037044;28;20134;-67
2023/03/01 11:38:04;;;;;;;15.77;7.63;;;;;;;23.86;47.93;99495.06;5039504;28;20142;-69
2023/03/01 11:40:53;;;;;;;15.27;9.13;;;;;;;23.84;48.88;99508.03;5034625;28;20056;-68
2023/03/01 11:44:01;;;;;;;21.17;10.90;;;;;;;23.82;48.87;99503.94;5014142;28;20056;-66
2023/03/01 11:47:22;;;;;;;16.27;8.60;;;;;;;23.82;48.88;99498.53;5018295;28;20045;-67
2023/03/01 11:50:12;;;;;;;21.75;9.20;;;;;;;23.84;49.42;99504.50;5002334;28;20167;-67
2023/03/01 11:53:19;;;;;;;21.60;8.75;;;;;;;23.78;50.10;99506.34;5022247;28;20067;-69
2023/03/01 11:56:05;;;;;;;21.90;9.90;;;;;;;23.73;50.63;99503.59;5019598;28;20065;-66
2023/03/01 11:59:04;;;;;;;18.67;10.73;;;;;;;23.49;48.90;99495.03;5057389;28;20103;-65
2023/03/01 12:02:05;;;;;;;23.55;9.82;;;;;;;23.59;50.07;99497.81;5056983;28;20160;-65
2023/03/01 12:05:23;;;;;;;22.60;10.45;;;;;;;23.57;50.07;99501.88;5047596;28;20459;-63
2023/03/01 12:08:21;;;;;;;24.25;10.02;;;;;;;23.51;49.95;99492.06;5064274;28;20084;-64
2023/03/01 12:11:41;;;;;;;22.20;11.65;;;;;;;23.45;49.94;99498.53;5055014;28;20047;-66
2023/03/01 12:14:41;;;;;;;20.38;11.25;;;;;;;23.45;49.94;99493.09;5059429;28;20140;-65
2023/03/01 12:17:49;;;;;;;22.20;9.93;;;;;;;23.45;50.47;99493.09;5053838;28;20795;-65
2023/03/01 12:20:28;;;;;;;20.95;10.52;;;;;;;23.37;51.60;99474.63;5053565;28;20150;-65
2023/03/01 12:23:36;;;;;;;28.27;11.45;;;;;;;23.09;50.79;99463.00;5055982;28;20051;-65
2023/03/01 12:26:28;;;;;;;23.48;10.95;;;;;;;22.89;51.86;99453.84;5059939;28;20049;-65
2023/03/01 12:29:32;;;;;;;23.63;12.07;;;;;;;22.84;52.01;99457.31;5058492;28;20135;-63
2023/03/01 12:32:24;;;;;;;19.88;11.13;;;;;;;22.97;52.33;99475.81;5060698;28;20434;-62
2023/03/01 12:35:47;;;;;;;23.00;11.73;;;;;;;23.04;53.12;99487.28;5063950;28;20048;-63
2023/03/01 12:38:58;;;;;;;22.95;11.23;;;;;;;23.20;52.95;99504.44;5057780;28;20463;-63
2023/03/01 12:42:05;;;;;;;28.85;11.75;;;;;;;23.12;53.26;99494.09;5064720;28;20052;-63
2023/03/01 12:45:11;;;;;;;22.67;10.63;;;;;;;22.89;53.49;99489.78;5074392;28;20059;-66
2023/03/01 12:48:35;;;;;;;22.10;11.35;;;;;;;22.93;53.85;99490.09;5065511;28;20492;-63
2023/03/01 12:51:16;;;;;;;26.77;11.90;;;;;;;22.86;53.89;99493.00;4718105;28;10000430;-62
2023/03/01 12:54:23;;;;;;;24.88;11.88;;;;;;;22.93;54.21;99501.72;5063845;28;20557;-60
2023/03/01 12:57:46;;;;;;;24.92;12.10;;;;;;;22.83;54.09;99497.03;5059602;28;20051;-64
2023/03/01 13:01:14;;;;;;;25.95;10.77;;;;;;;22.82;54.69;99494.59;5055709;28;20060;-66
2023/03/01 13:04:13;;;;;;;24.27;11.45;;;;;;;22.99;54.65;99492.63;5043564;28;20455;-68
2023/03/01 13:07:33;;;;;;;24.02;11.30;;;;;;;23.01;55.22;99500.47;5066466;28;20769;-65
2023/03/01 13:10:15;;;;;;;30.70;12.63;;;;;;;22.84;54.34;99500.53;5018962;28;20041;-62